Time;durP1;ratioP1;P1;durP2;ratioP2;P2;SDS_P1;SDS_P2;PMS_P1;PMS_P2;Temp;Humidity;BMP_temperature;BMP_pressure;BME280_temperature;BME280_humidity;BME280_pressure;Samples;Min_cycle;Max_cycle;Signal;HPM_P1;HPM_P2
2022/07/26 00:02:08;;;;;;;3.50;3.20;;;25.20;70.90;;;;;;4993475;28;20223;-70
2022/07/26 00:04:34;;;;;;;3.28;2.97;;;25.20;71.60;;;;;;5009918;28;20228;-70
2022/07/26 00:07:00;;;;;;;3.95;3.35;;;25.20;70.80;;;;;;5006777;28;20260;-70
2022/07/26 00:09:26;;;;;;;3.22;3.03;;;25.20;70.90;;;;;;4974202;28;20189;-69
2022/07/26 00:11:52;;;;;;;3.70;3.40;;;25.20;71.00;;;;;;4989760;28;20289;-69
2022/07/26 00:14:18;;;;;;;3.28;3.00;;;25.20;71.00;;;;;;4990361;28;20189;-69
2022/07/26 00:16:44;;;;;;;3.38;3.08;;;25.20;71.00;;;;;;4990526;28;20292;-69
2022/07/26 00:19:10;;;;;;;3.50;3.10;;;25.20;71.10;;;;;;4990339;28;20178;-69
2022/07/26 00:21:36;;;;;;;3.10;2.90;;;25.20;71.10;;;;;;4989840;28;20212;-69
2022/07/26 00:24:04;;;;;;;3.72;3.40;;;25.20;71.10;;;;;;4990156;28;20737;-69
2022/07/26 00:26:30;;;;;;;2.90;2.70;;;25.20;71.00;;;;;;4973742;28;20210;-69
2022/07/26 00:28:56;;;;;;;3.40;3.10;;;25.20;71.00;;;;;;4990319;28;20259;-69
2022/07/26 00:31:22;;;;;;;3.17;2.97;;;25.20;71.80;;;;;;4989741;28;20724;-69
2022/07/26 00:33:48;;;;;;;3.63;3.33;;;25.20;71.10;;;;;;4989960;28;20316;-69
2022/07/26 00:36:14;;;;;;;3.28;2.97;;;25.20;72.00;;;;;;4989992;28;20359;-69
2022/07/26 00:38:40;;;;;;;3.03;2.83;;;25.20;71.10;;;;;;4973806;28;20276;-70
2022/07/26 00:41:06;;;;;;;3.25;2.97;;;25.20;71.10;;;;;;4989417;28;20181;-68
2022/07/26 00:43:33;;;;;;;3.45;3.15;;;25.20;71.00;;;;;;4989801;28;20201;-69
2022/07/26 00:45:58;;;;;;;3.25;3.05;;;25.20;71.20;;;;;;4989699;28;20258;-69
2022/07/26 00:48:24;;;;;;;3.17;2.88;;;25.20;71.00;;;;;;4972819;28;20228;-69
2022/07/26 00:50:53;;;;;;;3.28;3.00;;;25.20;71.10;;;;;;4989630;28;20186;-69
2022/07/26 00:53:21;;;;;;;3.10;2.90;;;25.20;71.00;;;;;;4988889;28;20216;-69
2022/07/26 00:55:49;;;;;;;2.92;2.72;;;25.20;71.10;;;;;;4989337;28;20222;-69
2022/07/26 00:58:17;;;;;;;3.55;3.08;;;25.20;71.00;;;;;;4989726;28;20189;-69
2022/07/26 01:00:43;;;;;;;3.25;2.95;;;25.20;71.20;;;;;;4989491;28;20178;-69
2022/07/26 01:03:10;;;;;;;3.17;2.88;;;25.20;71.10;;;;;;4988886;28;20190;-70
2022/07/26 01:05:36;;;;;;;2.95;2.75;;;25.20;71.20;;;;;;4989500;28;20281;-69
2022/07/26 01:08:02;;;;;;;2.78;2.58;;;25.20;71.10;;;;;;4973073;28;20194;-69
2022/07/26 01:10:28;;;;;;;2.85;2.65;;;25.20;71.20;;;;;;4989350;28;20408;-69
2022/07/26 01:12:54;;;;;;;3.15;2.90;;;25.20;71.90;;;;;;4972525;28;20304;-70
2022/07/26 01:15:20;;;;;;;3.47;2.80;;;25.20;71.20;;;;;;4989232;28;20685;-69
2022/07/26 01:17:46;;;;;;;2.60;2.40;;;25.20;71.20;;;;;;4989417;28;20186;-69
2022/07/26 01:20:13;;;;;;;3.15;2.75;;;25.10;71.10;;;;;;4989240;28;20182;-69
2022/07/26 01:22:40;;;;;;;2.85;2.65;;;25.20;71.10;;;;;;4972370;28;20189;-69
2022/07/26 01:25:06;;;;;;;3.30;2.92;;;25.20;71.10;;;;;;4988973;28;20196;-69
2022/07/26 01:27:38;;;;;;;3.38;2.67;;;25.20;71.10;;;;;;4988858;28;20237;-68
2022/07/26 01:30:08;;;;;;;2.80;2.60;;;25.10;70.90;;;;;;4988889;28;20189;-70
2022/07/26 01:32:34;;;;;;;3.00;2.70;;;25.10;71.00;;;;;;4971997;28;20685;-69
2022/07/26 01:35:00;;;;;;;3.00;2.80;;;25.20;71.10;;;;;;4989187;28;20248;-68
2022/07/26 01:37:26;;;;;;;2.97;2.70;;;25.20;71.00;;;;;;4988970;28;20625;-69
2022/07/26 01:39:52;;;;;;;3.13;2.72;;;25.10;71.00;;;;;;4988532;28;20638;-69
2022/07/26 01:42:18;;;;;;;2.88;2.67;;;25.10;70.90;;;;;;4988246;28;20185;-69
2022/07/26 01:44:44;;;;;;;3.17;2.88;;;25.20;71.00;;;;;;4988774;28;20237;-69
2022/07/26 01:47:09;;;;;;;3.05;2.83;;;25.10;71.00;;;;;;4972425;28;20272;-69
2022/07/26 01:49:35;;;;;;;2.88;2.67;;;25.20;71.20;;;;;;4988926;28;20193;-68
2022/07/26 01:52:01;;;;;;;3.00;2.78;;;25.10;71.00;;;;;;4988063;28;20256;-68
2022/07/26 01:54:28;;;;;;;2.70;2.50;;;25.10;71.10;;;;;;4972327;28;20190;-69
2022/07/26 01:56:53;;;;;;;2.75;2.55;;;25.10;71.20;;;;;;4988407;28;20224;-69
2022/07/26 01:59:19;;;;;;;2.95;2.55;;;25.10;71.10;;;;;;4988630;28;20189;-69
2022/07/26 02:01:45;;;;;;;2.85;2.65;;;25.10;71.00;;;;;;4999226;28;20185;-69
2022/07/26 02:04:57;;;;;;;2.50;2.38;;;25.10;71.00;;;;;;5008132;28;20180;-69
2022/07/26 02:06:57;;;;;;;2.85;2.65;;;25.20;71.20;;;;;;5007962;28;20200;-69
2022/07/26 02:09:23;;;;;;;2.97;2.78;;;25.10;71.20;;;;;;5008008;28;20184;-69
2022/07/26 02:11:49;;;;;;;2.38;2.28;;;25.20;71.10;;;;;;5007811;28;20560;-69
2022/07/26 02:14:14;;;;;;;2.55;2.35;;;25.10;71.00;;;;;;5007898;28;20185;-69
2022/07/26 02:16:40;;;;;;;3.10;2.90;;;25.10;71.00;;;;;;5007992;28;20228;-69
2022/07/26 02:19:06;;;;;;;2.53;2.40;;;25.10;71.00;;;;;;5008190;28;20184;-69
2022/07/26 02:21:32;;;;;;;2.85;2.65;;;25.10;71.10;;;;;;5007716;28;20206;-69
2022/07/26 02:23:58;;;;;;;2.80;2.60;;;25.10;71.10;;;;;;4991618;28;20195;-69
2022/07/26 02:26:24;;;;;;;2.50;2.30;;;25.10;71.00;;;;;;5007722;28;20698;-69
2022/07/26 02:28:50;;;;;;;2.63;2.42;;;25.10;71.00;;;;;;5007925;28;20184;-70
2022/07/26 02:31:15;;;;;;;2.60;2.45;;;25.10;71.00;;;;;;5008030;28;20565;-69
2022/07/26 02:33:41;;;;;;;2.45;2.25;;;25.10;71.80;;;;;;5007434;28;20300;-69
2022/07/26 02:36:08;;;;;;;4.03;2.42;;;25.10;71.00;;;;;;5007733;28;20236;-69
2022/07/26 02:38:33;;;;;;;2.60;2.20;;;25.10;71.00;;;;;;5007814;28;20205;-69
2022/07/26 02:40:59;;;;;;;2.60;2.40;;;25.10;71.10;;;;;;5007727;28;20231;-69
2022/07/26 02:43:25;;;;;;;2.67;2.47;;;25.10;71.10;;;;;;5007308;28;20230;-69
2022/07/26 02:45:51;;;;;;;2.75;2.55;;;25.10;71.20;;;;;;5007612;28;20208;-69
2022/07/26 02:48:17;;;;;;;2.58;2.38;;;25.10;71.20;;;;;;5000051;28;20189;-70
2022/07/26 02:50:43;;;;;;;2.50;2.30;;;25.10;71.10;;;;;;4982918;28;20623;-69
2022/07/26 02:53:09;;;;;;;2.20;2.10;;;25.10;71.20;;;;;;4990686;28;20212;-69
2022/07/26 02:55:34;;;;;;;2.70;2.50;;;25.10;71.10;;;;;;5007221;28;20232;-69
2022/07/26 02:58:15;;;;;;;2.97;2.63;;;25.10;71.20;;;;;;4994568;28;20201;-69
2022/07/26 03:00:41;;;;;;;2.80;2.60;;;25.10;71.20;;;;;;4974984;28;20180;-69
2022/07/26 03:03:07;;;;;;;2.50;2.30;;;25.10;71.20;;;;;;4990591;28;20189;-69
2022/07/26 03:05:33;;;;;;;2.25;2.15;;;25.10;71.20;;;;;;4991279;28;20189;-69
2022/07/26 03:07:59;;;;;;;2.40;2.30;;;25.10;71.70;;;;;;4991205;28;20185;-69
2022/07/26 03:10:24;;;;;;;4.47;2.03;;;25.10;71.20;;;;;;5007391;28;20576;-69
2022/07/26 03:12:50;;;;;;;2.55;2.35;;;25.10;71.30;;;;;;4992451;28;20220;-69
2022/07/26 03:15:16;;;;;;;2.13;2.03;;;25.10;71.30;;;;;;5010874;28;20189;-69
2022/07/26 03:17:42;;;;;;;2.50;2.30;;;25.10;71.20;;;;;;4994688;28;20192;-69
2022/07/26 03:20:09;;;;;;;2.53;2.30;;;25.10;71.20;;;;;;5010804;28;20220;-69
2022/07/26 03:22:35;;;;;;;2.20;2.00;;;25.10;71.20;;;;;;4993985;28;20339;-69
2022/07/26 03:25:01;;;;;;;2.13;2.03;;;25.10;71.30;;;;;;4994520;28;20272;-69
2022/07/26 03:27:27;;;;;;;2.05;1.95;;;25.10;71.20;;;;;;5010862;28;20296;-69
2022/07/26 03:29:52;;;;;;;3.90;2.45;;;25.10;71.30;;;;;;4994839;28;20272;-69
2022/07/26 03:32:18;;;;;;;2.33;2.13;;;25.10;71.30;;;;;;5010510;28;20227;-70
2022/07/26 03:34:44;;;;;;;2.30;2.10;;;25.10;71.40;;;;;;4994393;28;20192;-69
2022/07/26 03:37:10;;;;;;;2.60;2.40;;;25.10;72.10;;;;;;5010766;28;20204;-69
2022/07/26 03:39:37;;;;;;;3.65;2.22;;;25.10;71.30;;;;;;4993934;28;20185;-70
2022/07/26 03:42:03;;;;;;;2.25;2.13;;;25.10;71.40;;;;;;5010157;28;20667;-70
2022/07/26 03:44:29;;;;;;;2.42;1.80;;;25.10;71.40;;;;;;4993714;28;20189;-69
2022/07/26 03:46:55;;;;;;;3.50;2.20;;;25.00;71.40;;;;;;4993992;28;20203;-69
2022/07/26 03:49:21;;;;;;;2.03;1.92;;;25.00;71.50;;;;;;4993965;28;20184;-69
2022/07/26 03:51:47;;;;;;;2.55;2.30;;;25.00;71.40;;;;;;4993336;28;20181;-69
2022/07/26 03:54:13;;;;;;;2.22;2.03;;;25.00;72.10;;;;;;5010347;28;20223;-69
2022/07/26 03:56:39;;;;;;;2.10;2.00;;;25.10;71.50;;;;;;4993064;28;20228;-69
2022/07/26 03:59:10;;;;;;;2.17;2.08;;;25.00;71.50;;;;;;4974627;28;20174;-69
2022/07/26 04:01:40;;;;;;;2.40;2.20;;;25.10;71.50;;;;;;4973831;28;20182;-69
2022/07/26 04:04:12;;;;;;;2.10;2.00;;;25.10;71.60;;;;;;4974546;28;20201;-69
2022/07/26 04:06:39;;;;;;;2.00;1.90;;;25.00;71.50;;;;;;4974113;28;20205;-69
2022/07/26 04:09:06;;;;;;;2.00;1.80;;;25.10;71.50;;;;;;4974455;28;20198;-69
2022/07/26 04:11:33;;;;;;;2.33;2.13;;;25.00;71.50;;;;;;4973945;28;20196;-69
2022/07/26 04:13:59;;;;;;;2.20;2.00;;;25.00;71.50;;;;;;4974008;28;20221;-70
2022/07/26 04:16:25;;;;;;;2.17;1.98;;;25.00;71.50;;;;;;4973924;28;20201;-69
2022/07/26 04:18:53;;;;;;;2.10;1.80;;;25.00;71.50;;;;;;4974294;28;20189;-69
2022/07/26 04:21:19;;;;;;;1.88;1.77;;;25.00;72.30;;;;;;4973927;28;20285;-69
2022/07/26 04:23:45;;;;;;;1.98;1.88;;;25.00;71.70;;;;;;4973637;28;20280;-69
2022/07/26 04:26:12;;;;;;;2.20;2.00;;;25.10;71.70;;;;;;4973903;28;20278;-69
2022/07/26 04:28:40;;;;;;;1.90;1.80;;;25.00;71.70;;;;;;4973821;28;20201;-69
2022/07/26 04:31:07;;;;;;;2.10;1.90;;;25.00;71.70;;;;;;4973817;28;20228;-69
2022/07/26 04:33:33;;;;;;;1.83;1.73;;;25.00;71.70;;;;;;4973014;28;20697;-69
2022/07/26 04:36:01;;;;;;;1.83;1.73;;;25.00;71.80;;;;;;4973371;28;20241;-69
2022/07/26 04:38:27;;;;;;;1.90;1.80;;;25.00;71.80;;;;;;4973884;28;20186;-67
2022/07/26 04:40:54;;;;;;;2.97;1.98;;;25.00;71.80;;;;;;4989347;28;20665;-69
2022/07/26 04:43:20;;;;;;;1.80;1.70;;;25.00;71.80;;;;;;4973186;28;20208;-69
2022/07/26 04:45:47;;;;;;;1.90;1.80;;;25.00;71.80;;;;;;4989603;28;20232;-68
2022/07/26 04:48:15;;;;;;;1.95;1.85;;;25.00;71.80;;;;;;4973772;28;20665;-70
2022/07/26 04:50:42;;;;;;;1.85;1.75;;;25.00;71.80;;;;;;4973807;28;20186;-69
2022/07/26 04:53:10;;;;;;;2.10;1.80;;;25.00;71.80;;;;;;4973074;28;20221;-69
2022/07/26 04:55:40;;;;;;;1.80;1.70;;;25.00;71.80;;;;;;4973175;28;20197;-69
2022/07/26 04:58:06;;;;;;;1.80;1.70;;;25.00;71.70;;;;;;4973326;28;20189;-69
2022/07/26 05:00:33;;;;;;;2.92;1.75;;;25.00;71.70;;;;;;4973623;28;20189;-69
2022/07/26 05:03:01;;;;;;;1.70;1.60;;;25.00;71.70;;;;;;4972795;28;20197;-70
2022/07/26 05:05:30;;;;;;;1.90;1.80;;;25.00;71.70;;;;;;4973089;28;20193;-70
2022/07/26 05:08:00;;;;;;;2.55;1.83;;;25.00;71.80;;;;;;4973373;28;20193;-69
2022/07/26 05:10:35;;;;;;;2.20;1.70;;;25.00;71.80;;;;;;4973045;28;20217;-69
2022/07/26 05:13:04;;;;;;;1.92;1.83;;;25.00;71.80;;;;;;4972777;28;20209;-68
2022/07/26 05:15:33;;;;;;;1.80;1.70;;;25.00;71.70;;;;;;4988775;28;20192;-68
2022/07/26 05:18:08;;;;;;;1.75;1.65;;;24.90;71.70;;;;;;4972151;28;20213;-69
2022/07/26 05:20:35;;;;;;;2.05;1.77;;;25.00;71.70;;;;;;4972419;28;20181;-68
2022/07/26 05:23:02;;;;;;;1.80;1.70;;;25.00;71.70;;;;;;4971817;28;20256;-68
2022/07/26 05:25:28;;;;;;;1.50;1.40;;;25.00;71.60;;;;;;4972182;28;20185;-68
2022/07/26 05:27:54;;;;;;;1.50;1.40;;;25.00;71.60;;;;;;4971588;28;20197;-68
2022/07/26 05:30:20;;;;;;;1.95;1.85;;;25.00;71.50;;;;;;4972564;28;20200;-68
2022/07/26 05:32:46;;;;;;;2.40;1.80;;;24.90;71.40;;;;;;4971607;28;20224;-68
2022/07/26 05:35:12;;;;;;;1.67;1.58;;;25.00;71.50;;;;;;4972022;28;20232;-69
2022/07/26 05:37:38;;;;;;;2.30;1.73;;;25.00;71.50;;;;;;4972100;28;20631;-68
2022/07/26 05:40:05;;;;;;;1.70;1.60;;;24.90;71.30;;;;;;4971840;28;20639;-69
2022/07/26 05:42:31;;;;;;;1.70;1.60;;;24.90;71.20;;;;;;4971637;28;20264;-68
2022/07/26 05:44:57;;;;;;;1.83;1.70;;;25.00;71.70;;;;;;4972031;28;20182;-68
2022/07/26 05:47:23;;;;;;;1.92;1.70;;;25.00;71.30;;;;;;4971963;28;20202;-69
2022/07/26 05:49:49;;;;;;;1.45;1.35;;;25.00;71.30;;;;;;4972030;28;20580;-70
2022/07/26 05:52:15;;;;;;;1.77;1.60;;;25.00;71.20;;;;;;4971243;28;20217;-69
2022/07/26 05:54:41;;;;;;;2.63;1.70;;;24.90;71.10;;;;;;4972030;28;20189;-70
2022/07/26 05:57:06;;;;;;;1.50;1.40;;;25.00;72.00;;;;;;4971817;28;20214;-69
2022/07/26 05:59:32;;;;;;;2.30;1.58;;;25.00;71.20;;;;;;4975082;28;20177;-69
2022/07/26 06:01:58;;;;;;;1.70;1.60;;;25.00;71.20;;;;;;4987548;28;20194;-69
2022/07/26 06:04:26;;;;;;;1.63;1.52;;;25.00;71.10;;;;;;4988116;28;20189;-69
2022/07/26 06:06:53;;;;;;;1.70;1.60;;;25.00;71.10;;;;;;4987904;28;20276;-69
2022/07/26 06:09:19;;;;;;;1.98;1.63;;;25.00;71.10;;;;;;4988234;28;20444;-68
2022/07/26 06:11:45;;;;;;;1.50;1.40;;;25.00;71.10;;;;;;4987563;28;20226;-69
2022/07/26 06:14:11;;;;;;;1.75;1.65;;;25.00;71.10;;;;;;4987826;28;20248;-69
2022/07/26 06:16:37;;;;;;;1.55;1.45;;;25.00;71.10;;;;;;4987900;28;20202;-69
2022/07/26 06:19:03;;;;;;;1.80;1.70;;;25.00;71.20;;;;;;4987822;28;20186;-69
2022/07/26 06:21:29;;;;;;;1.60;1.50;;;25.00;71.10;;;;;;4988169;28;20236;-68
2022/07/26 06:23:55;;;;;;;1.42;1.33;;;25.00;71.10;;;;;;4987535;28;20189;-69
2022/07/26 06:26:22;;;;;;;2.30;1.45;;;25.00;71.10;;;;;;4987990;28;20202;-68
2022/07/26 06:28:50;;;;;;;1.88;1.77;;;25.00;71.10;;;;;;4991282;28;20219;-69
2022/07/26 06:31:17;;;;;;;1.50;1.40;;;25.00;71.10;;;;;;4987785;28;20181;-69
2022/07/26 06:33:43;;;;;;;1.73;1.50;;;25.00;70.90;;;;;;4987129;28;20210;-69
2022/07/26 06:36:09;;;;;;;1.67;1.55;;;25.00;71.00;;;;;;4988046;28;20217;-69
2022/07/26 06:38:35;;;;;;;1.60;1.50;;;25.00;71.80;;;;;;4987756;28;20186;-69
2022/07/26 06:41:01;;;;;;;1.48;1.38;;;25.00;71.00;;;;;;4987452;28;20190;-69
2022/07/26 06:43:27;;;;;;;1.70;1.60;;;25.00;71.00;;;;;;4987495;28;20285;-68
2022/07/26 06:45:53;;;;;;;1.77;1.67;;;25.00;70.90;;;;;;4971246;28;20210;-69
2022/07/26 06:48:19;;;;;;;1.50;1.40;;;25.00;70.90;;;;;;4990648;28;20198;-69
2022/07/26 06:50:44;;;;;;;1.70;1.60;;;25.00;70.90;;;;;;4991537;28;20198;-69
2022/07/26 06:53:10;;;;;;;1.73;1.63;;;25.00;70.90;;;;;;4990863;28;20224;-69
2022/07/26 06:55:36;;;;;;;1.98;1.88;;;25.00;70.90;;;;;;4991153;28;20216;-68
2022/07/26 06:58:02;;;;;;;1.70;1.60;;;25.00;70.90;;;;;;4991179;28;20217;-69
2022/07/26 07:00:28;;;;;;;1.48;1.38;;;25.00;70.80;;;;;;4991275;28;20193;-68
2022/07/26 07:02:53;;;;;;;1.50;1.40;;;25.00;70.80;;;;;;4994154;28;20221;-69
2022/07/26 07:05:19;;;;;;;2.15;1.50;;;25.00;70.80;;;;;;5010779;28;20192;-70
2022/07/26 07:07:45;;;;;;;1.60;1.50;;;25.00;70.80;;;;;;4978189;28;20224;-69
2022/07/26 07:10:11;;;;;;;1.95;1.60;;;25.00;70.80;;;;;;5010775;28;20185;-69
2022/07/26 07:12:38;;;;;;;1.60;1.50;;;25.00;70.80;;;;;;5010241;28;20216;-69
2022/07/26 07:15:05;;;;;;;1.70;1.60;;;25.00;70.70;;;;;;4994221;28;20319;-69
2022/07/26 07:17:31;;;;;;;1.80;1.70;;;25.00;70.60;;;;;;5010368;28;20204;-68
2022/07/26 07:19:57;;;;;;;1.58;1.48;;;25.10;70.70;;;;;;5010749;28;20196;-68
2022/07/26 07:22:22;;;;;;;1.67;1.58;;;25.00;70.50;;;;;;5009902;28;20184;-68
2022/07/26 07:24:48;;;;;;;1.60;1.50;;;25.00;70.50;;;;;;4977878;28;20184;-70
2022/07/26 07:27:14;;;;;;;1.73;1.63;;;25.00;70.50;;;;;;5010203;28;20215;-69
2022/07/26 07:29:40;;;;;;;2.28;1.80;;;25.10;70.60;;;;;;5010491;28;20199;-69
2022/07/26 07:32:06;;;;;;;2.47;1.67;;;25.00;70.40;;;;;;4993489;28;20185;-69
2022/07/26 07:34:32;;;;;;;1.50;1.40;;;25.00;70.40;;;;;;4977731;28;20221;-69
2022/07/26 07:36:58;;;;;;;1.70;1.42;;;25.00;70.40;;;;;;5010056;28;20208;-69
2022/07/26 07:39:24;;;;;;;2.53;1.63;;;25.10;70.60;;;;;;5010190;28;20181;-70
2022/07/26 07:41:50;;;;;;;1.70;1.60;;;25.00;70.40;;;;;;4976942;28;20184;-68
2022/07/26 07:44:16;;;;;;;1.98;1.60;;;25.00;70.40;;;;;;4977587;28;20192;-69
2022/07/26 07:46:42;;;;;;;1.40;1.40;;;25.00;70.40;;;;;;5010159;28;20266;-69
2022/07/26 07:49:09;;;;;;;1.77;1.65;;;25.10;70.40;;;;;;5009979;28;20212;-70
2022/07/26 07:51:35;;;;;;;1.60;1.50;;;25.00;70.30;;;;;;5009892;28;20216;-69
2022/07/26 07:54:01;;;;;;;1.90;1.80;;;25.00;70.40;;;;;;4976566;28;20213;-69
2022/07/26 07:56:27;;;;;;;1.73;1.63;;;25.10;70.50;;;;;;5009283;28;20236;-69
2022/07/26 07:58:53;;;;;;;1.60;1.50;;;25.10;70.50;;;;;;4992973;28;20185;-69
2022/07/26 08:01:18;;;;;;;1.67;1.52;;;25.00;70.30;;;;;;4993774;28;20192;-69
2022/07/26 08:03:44;;;;;;;1.70;1.60;;;25.10;70.40;;;;;;5009127;28;20218;-69
2022/07/26 08:06:10;;;;;;;1.80;1.70;;;25.10;70.40;;;;;;5009377;28;20256;-69
2022/07/26 08:08:37;;;;;;;1.95;1.85;;;25.10;70.40;;;;;;5009604;28;20254;-69
2022/07/26 08:11:04;;;;;;;1.70;1.48;;;25.10;71.20;;;;;;5009715;28;20185;-69
2022/07/26 08:13:30;;;;;;;1.90;1.40;;;25.10;70.40;;;;;;5008745;28;20225;-69
2022/07/26 08:15:56;;;;;;;1.50;1.40;;;25.10;70.40;;;;;;5009449;28;20209;-69
2022/07/26 08:18:23;;;;;;;1.83;1.58;;;25.10;70.30;;;;;;4990588;28;20252;-69
2022/07/26 08:20:52;;;;;;;1.67;1.58;;;25.10;70.20;;;;;;4989470;28;20256;-70
2022/07/26 08:23:19;;;;;;;1.70;1.60;;;25.00;70.10;;;;;;4988922;28;20185;-69
2022/07/26 08:25:46;;;;;;;1.70;1.60;;;25.00;70.00;;;;;;4990361;28;20208;-69
2022/07/26 08:28:28;;;;;;;2.20;2.00;;;25.10;70.10;;;;;;4991739;28;20232;-70
2022/07/26 08:30:54;;;;;;;1.65;1.55;;;25.10;70.10;;;;;;4976513;28;20235;-69
2022/07/26 08:33:20;;;;;;;1.80;1.70;;;25.10;70.10;;;;;;4991774;28;20268;-69
2022/07/26 08:35:46;;;;;;;2.40;1.70;;;25.10;70.00;;;;;;4992505;28;20203;-69
2022/07/26 08:38:12;;;;;;;1.83;1.73;;;25.10;70.10;;;;;;4989144;28;20190;-69
2022/07/26 08:40:38;;;;;;;1.75;1.65;;;25.10;70.10;;;;;;4988751;28;20189;-69
2022/07/26 08:43:03;;;;;;;1.80;1.60;;;25.10;70.00;;;;;;4988811;28;20186;-69
2022/07/26 08:45:31;;;;;;;1.73;1.63;;;25.10;70.00;;;;;;4989048;28;20201;-69
2022/07/26 08:48:00;;;;;;;1.58;1.48;;;25.20;70.00;;;;;;4988974;28;20561;-70
2022/07/26 08:50:28;;;;;;;1.98;1.83;;;25.20;69.90;;;;;;4989307;28;20193;-70
2022/07/26 08:53:02;;;;;;;1.42;1.33;;;25.20;69.80;;;;;;4988516;28;20205;-70
2022/07/26 08:55:29;;;;;;;1.70;1.60;;;25.20;69.80;;;;;;4989009;28;20223;-68
2022/07/26 08:57:55;;;;;;;1.85;1.75;;;25.20;69.90;;;;;;4988682;28;20640;-69
2022/07/26 09:00:28;;;;;;;2.63;1.60;;;25.10;70.80;;;;;;4989255;28;20277;-70
2022/07/26 09:02:55;;;;;;;1.55;1.45;;;25.10;70.10;;;;;;4988395;28;20197;-69
2022/07/26 09:05:31;;;;;;;1.92;1.83;;;25.10;70.20;;;;;;4988843;28;20185;-70
2022/07/26 09:07:58;;;;;;;1.45;1.35;;;25.10;70.30;;;;;;4988902;28;20211;-69
2022/07/26 09:10:24;;;;;;;1.98;1.88;;;25.20;70.10;;;;;;4993739;28;20189;-69
2022/07/26 09:12:56;;;;;;;1.48;1.38;;;25.20;70.00;;;;;;5007708;28;20217;-69
2022/07/26 09:15:26;;;;;;;2.00;1.80;;;25.20;69.80;;;;;;5008405;28;20199;-69
2022/07/26 09:17:56;;;;;;;1.80;1.70;;;25.20;69.80;;;;;;5008191;28;20207;-68
2022/07/26 09:20:29;;;;;;;1.52;1.42;;;25.20;69.70;;;;;;5008261;28;20275;-68
2022/07/26 09:23:07;;;;;;;1.60;1.50;;;25.20;69.90;;;;;;5007658;28;20222;-69
2022/07/26 09:25:37;;;;;;;1.70;1.60;;;25.20;69.70;;;;;;5008376;28;20197;-69
2022/07/26 09:28:21;;;;;;;1.80;1.70;;;25.20;69.70;;;;;;5008169;28;20208;-69
2022/07/26 09:30:54;;;;;;;2.00;1.80;;;25.20;69.50;;;;;;4975771;28;20184;-69
2022/07/26 09:33:19;;;;;;;1.90;1.80;;;25.20;69.70;;;;;;5007354;28;20213;-69
2022/07/26 09:36:06;;;;;;;1.85;1.70;;;25.20;69.90;;;;;;5007839;28;20215;-69
2022/07/26 09:38:50;;;;;;;1.80;1.70;;;25.20;70.00;;;;;;5008088;28;20184;-68
2022/07/26 09:41:26;;;;;;;1.90;1.80;;;25.20;69.90;;;;;;5008065;28;20172;-68
2022/07/26 09:43:53;;;;;;;1.42;1.38;;;25.20;70.00;;;;;;4990896;28;20227;-69
2022/07/26 09:46:20;;;;;;;1.65;1.50;;;25.20;69.70;;;;;;5008070;28;20255;-69
2022/07/26 09:48:46;;;;;;;1.73;1.63;;;25.20;70.50;;;;;;5007881;28;20664;-68
2022/07/26 09:51:12;;;;;;;2.30;2.10;;;25.20;69.70;;;;;;5007466;28;20196;-69
2022/07/26 09:53:48;;;;;;;1.73;1.58;;;25.20;69.60;;;;;;5007266;28;20227;-68
2022/07/26 09:56:14;;;;;;;1.48;1.38;;;25.30;69.70;;;;;;4975263;28;20211;-69
2022/07/26 09:58:40;;;;;;;1.70;1.60;;;25.30;69.40;;;;;;4991508;28;20191;-68
2022/07/26 10:01:06;;;;;;;1.90;1.80;;;25.20;69.40;;;;;;5007726;28;20172;-68
2022/07/26 10:03:34;;;;;;;2.03;1.75;;;25.20;69.40;;;;;;4996037;28;20185;-70
2022/07/26 10:06:02;;;;;;;1.90;1.70;;;25.20;69.00;;;;;;4996019;28;20208;-68
2022/07/26 10:08:29;;;;;;;1.77;1.67;;;25.30;69.40;;;;;;4995827;28;20185;-68
2022/07/26 10:11:05;;;;;;;1.55;1.45;;;25.30;69.20;;;;;;5013752;28;20192;-69
2022/07/26 10:13:31;;;;;;;1.80;1.70;;;25.30;69.20;;;;;;5003489;28;20371;-69
2022/07/26 10:15:57;;;;;;;1.83;1.73;;;25.30;69.70;;;;;;4996817;28;20197;-69
2022/07/26 10:18:35;;;;;;;2.00;1.83;;;25.20;70.00;;;;;;4997609;28;20188;-69
2022/07/26 10:21:25;;;;;;;1.70;1.60;;;25.20;70.10;;;;;;4965713;28;20196;-69
2022/07/26 10:23:57;;;;;;;2.95;1.75;;;25.20;70.40;;;;;;4984610;28;20586;-69
2022/07/26 10:26:31;;;;;;;2.78;1.75;;;25.20;70.00;;;;;;4966307;28;20202;-69
2022/07/26 10:29:16;;;;;;;1.70;1.60;;;25.20;69.70;;;;;;4967572;28;20192;-68
2022/07/26 10:31:42;;;;;;;1.70;1.60;;;25.20;69.50;;;;;;4985252;28;20189;-69
2022/07/26 10:34:09;;;;;;;1.70;1.60;;;25.20;69.90;;;;;;4976747;28;20271;-69
2022/07/26 10:36:38;;;;;;;2.15;1.60;;;25.20;70.30;;;;;;5001942;28;20201;-69
2022/07/26 10:39:08;;;;;;;1.42;1.33;;;25.20;70.10;;;;;;5011074;28;20664;-69
2022/07/26 10:42:00;;;;;;;1.70;1.60;;;25.20;70.00;;;;;;4978563;28;20192;-69
2022/07/26 10:44:29;;;;;;;1.58;1.40;;;25.30;70.20;;;;;;5010580;28;20247;-69
2022/07/26 10:47:07;;;;;;;2.22;1.35;;;25.30;70.00;;;;;;5011050;28;20235;-68
2022/07/26 10:49:38;;;;;;;1.77;1.67;;;25.30;70.10;;;;;;4990440;28;20606;-70
2022/07/26 10:52:16;;;;;;;1.73;1.63;;;25.20;69.70;;;;;;4994527;28;20650;-67
2022/07/26 10:55:03;;;;;;;1.58;1.48;;;25.20;69.70;;;;;;5011039;28;20275;-69
2022/07/26 10:57:36;;;;;;;1.95;1.40;;;25.30;69.40;;;;;;4993168;28;20223;-68
2022/07/26 11:00:15;;;;;;;1.60;1.50;;;25.30;69.40;;;;;;4993952;28;20184;-69
2022/07/26 11:02:42;;;;;;;2.30;1.50;;;25.30;69.40;;;;;;4993992;28;20201;-68
2022/07/26 11:05:11;;;;;;;3.50;1.90;;;25.30;69.50;;;;;;5006498;28;20665;-68
2022/07/26 11:08:08;;;;;;;3.17;1.50;;;25.30;69.30;;;;;;4993824;28;20209;-69
2022/07/26 11:10:39;;;;;;;1.50;1.40;;;25.30;69.60;;;;;;5010626;28;20185;-69
2022/07/26 11:13:17;;;;;;;2.20;1.50;;;25.30;69.50;;;;;;4997623;28;20209;-69
2022/07/26 11:15:58;;;;;;;1.40;1.30;;;25.20;69.30;;;;;;5010618;28;20204;-69
2022/07/26 11:18:29;;;;;;;1.50;1.40;;;25.30;69.00;;;;;;5010704;28;20664;-66
2022/07/26 11:21:08;;;;;;;1.73;1.63;;;25.30;68.80;;;;;;5016868;28;20254;-68
2022/07/26 11:23:37;;;;;;;1.85;1.65;;;25.30;68.90;;;;;;5009947;28;20191;-68
2022/07/26 11:26:15;;;;;;;1.92;1.77;;;25.30;69.00;;;;;;5008870;28;20213;-70
2022/07/26 11:28:51;;;;;;;1.40;1.30;;;25.30;69.30;;;;;;4976044;28;20189;-69
2022/07/26 11:31:40;;;;;;;1.73;1.60;;;25.30;69.60;;;;;;4990711;28;20212;-68
2022/07/26 11:34:16;;;;;;;2.10;2.00;;;25.20;69.40;;;;;;4996343;28;20205;-68
2022/07/26 11:36:44;;;;;;;2.92;1.67;;;25.30;69.70;;;;;;5006918;28;20201;-69
2022/07/26 11:39:19;;;;;;;1.75;1.65;;;25.20;69.20;;;;;;5006383;28;20213;-69
2022/07/26 11:41:46;;;;;;;2.08;1.58;;;25.30;68.90;;;;;;5006032;28;20188;-69
2022/07/26 11:44:21;;;;;;;4.00;1.35;;;25.30;68.80;;;;;;5009500;28;20229;-69
2022/07/26 11:46:48;;;;;;;1.67;1.50;;;25.30;69.00;;;;;;5009939;28;20251;-68
2022/07/26 11:49:28;;;;;;;1.50;1.40;;;25.30;68.40;;;;;;5009284;28;20283;-69
2022/07/26 11:52:02;;;;;;;2.17;1.42;;;25.30;69.20;;;;;;4977617;28;20189;-69
2022/07/26 11:54:32;;;;;;;2.47;1.90;;;25.30;68.90;;;;;;4992816;28;20255;-69
2022/07/26 11:57:04;;;;;;;1.55;1.35;;;25.30;69.20;;;;;;5009479;28;20212;-69
2022/07/26 11:59:33;;;;;;;2.65;1.60;;;25.30;69.50;;;;;;4992973;28;20181;-69
2022/07/26 12:02:01;;;;;;;2.67;1.30;;;25.20;69.00;;;;;;5009634;28;20731;-69
2022/07/26 12:04:39;;;;;;;1.42;1.33;;;25.30;69.20;;;;;;5008960;28;20189;-69
2022/07/26 12:07:18;;;;;;;1.90;1.60;;;25.30;69.00;;;;;;5006005;28;20205;-69
2022/07/26 12:09:50;;;;;;;1.42;1.33;;;25.30;68.70;;;;;;4989494;28;20213;-68
2022/07/26 12:12:30;;;;;;;2.10;1.50;;;25.30;68.30;;;;;;4989294;28;20633;-67
2022/07/26 12:14:58;;;;;;;3.25;1.80;;;25.30;68.60;;;;;;4989971;28;20185;-68
2022/07/26 12:17:24;;;;;;;1.95;1.63;;;25.30;69.10;;;;;;4989211;28;20201;-68
2022/07/26 12:19:50;;;;;;;1.55;1.45;;;25.30;70.00;;;;;;5008596;28;20193;-69
2022/07/26 12:22:19;;;;;;;1.58;1.48;;;25.30;69.40;;;;;;4992622;28;20215;-68
2022/07/26 12:24:57;;;;;;;3.22;1.60;;;25.30;69.30;;;;;;4991565;28;20182;-68
2022/07/26 12:27:30;;;;;;;1.80;1.38;;;25.20;69.50;;;;;;4992329;28;20353;-69
2022/07/26 12:30:02;;;;;;;1.58;1.35;;;25.30;69.50;;;;;;5008657;28;20188;-69
2022/07/26 12:32:40;;;;;;;1.92;1.60;;;25.20;69.10;;;;;;4976338;28;20189;-68
2022/07/26 12:35:09;;;;;;;2.28;1.50;;;25.30;69.60;;;;;;4992666;28;20233;-68
2022/07/26 12:37:46;;;;;;;1.75;1.50;;;25.20;69.70;;;;;;4992292;28;20213;-68
2022/07/26 12:40:17;;;;;;;1.48;1.38;;;25.30;69.80;;;;;;4972565;28;20182;-69
2022/07/26 12:42:56;;;;;;;1.70;1.60;;;25.30;69.50;;;;;;4988652;28;20185;-67
2022/07/26 12:45:34;;;;;;;2.70;1.20;;;25.30;69.70;;;;;;4972210;28;20193;-69
2022/07/26 12:48:06;;;;;;;1.40;1.30;;;25.30;69.50;;;;;;4989247;28;20268;-69
2022/07/26 12:50:31;;;;;;;2.33;1.70;;;25.30;69.40;;;;;;4989153;28;20194;-68
2022/07/26 12:53:05;;;;;;;2.60;1.60;;;25.30;69.30;;;;;;4972205;28;20220;-68
2022/07/26 12:55:32;;;;;;;1.50;1.40;;;25.30;69.20;;;;;;5001354;28;20201;-68